Time;durP1;ratioP1;P1;durP2;ratioP2;P2;SDS_P1;SDS_P2;PMS_P1;PMS_P2;Temp;Humidity;BMP_temperature;BMP_pressure;BME280_temperature;BME280_humidity;BME280_pressure;Samples;Min_cycle;Max_cycle;Signal;HPM_P1;HPM_P2
2022/04/15 00:08:16;;;;;;;10.38;4.20;;;;;;;7.11;60.35;100880.03;18417744;32;20093;-66
2022/04/15 00:18:20;;;;;;;20.52;7.25;;;;;;;7.18;60.65;100874.13;18432913;32;20115;-66
2022/04/15 00:28:24;;;;;;;10.35;5.62;;;;;;;7.12;61.80;100864.50;18430629;32;20463;-66
2022/04/15 00:38:28;;;;;;;11.25;4.85;;;;;;;6.68;61.57;100851.47;18431136;32;20106;-67
2022/04/15 00:48:32;;;;;;;10.85;4.87;;;;;;;6.61;62.16;100853.09;18430274;32;20101;-66
2022/04/15 00:58:37;;;;;;;9.00;4.70;;;;;;;6.60;61.91;100838.38;18430745;32;20092;-66
2022/04/15 01:08:42;;;;;;;8.02;4.70;;;;;;;6.52;61.64;100826.09;18429374;32;20131;-66
2022/04/15 01:18:47;;;;;;;11.55;5.25;;;;;;;6.41;62.28;100826.72;18428602;32;20116;-66
2022/04/15 01:28:51;;;;;;;10.85;4.68;;;;;;;6.22;62.68;100824.59;18428677;32;20096;-66
2022/04/15 01:38:56;;;;;;;9.02;3.92;;;;;;;6.15;62.08;100820.09;18428350;32;20100;-66
2022/04/15 01:49:00;;;;;;;10.80;5.65;;;;;;;5.80;62.68;100814.97;18436132;32;20108;-68
2022/04/15 01:59:04;;;;;;;12.43;4.35;;;;;;;5.67;64.49;100819.81;18435684;32;20137;-66
2022/04/15 02:09:09;;;;;;;16.67;4.55;;;;;;;6.12;62.71;100809.66;18435405;32;20108;-66
2022/04/15 02:19:12;;;;;;;8.30;3.92;;;;;;;5.85;64.87;100807.28;18435275;32;20369;-66
2022/04/15 02:29:16;;;;;;;13.62;5.10;;;;;;;5.72;64.59;100808.72;18420524;32;20143;-66
2022/04/15 02:39:20;;;;;;;10.80;5.05;;;;;;;5.84;64.35;100816.78;18421332;32;20457;-67
2022/04/15 02:49:25;;;;;;;14.02;6.15;;;;;;;5.48;66.05;100809.84;18419933;32;20096;-67
2022/04/15 02:59:28;;;;;;;11.93;5.75;;;;;;;5.78;64.75;100814.03;18433609;32;20097;-66
2022/04/15 03:09:32;;;;;;;11.43;5.22;;;;;;;5.53;65.29;100806.53;18433567;32;20457;-67
2022/04/15 03:19:36;;;;;;;13.70;5.50;;;;;;;5.59;65.81;100805.78;18434698;32;20107;-66
2022/04/15 03:29:43;;;;;;;13.70;5.28;;;;;;;5.39;66.33;100805.31;18434267;32;20097;-66
2022/04/15 03:39:46;;;;;;;12.30;5.00;;;;;;;5.35;67.05;100799.19;18434232;32;20112;-67
2022/04/15 03:49:52;;;;;;;10.60;4.53;;;;;;;5.44;66.27;100803.69;18432595;32;20109;-67
2022/04/15 03:59:55;;;;;;;11.12;4.72;;;;;;;5.40;65.21;100791.53;18432642;32;20085;-66
2022/04/15 04:10:00;;;;;;;8.85;4.18;;;;;;;4.93;66.81;100794.59;18431885;32;20116;-67
2022/04/15 04:20:05;;;;;;;9.43;5.70;;;;;;;5.22;66.27;100797.13;18431990;32;20101;-66
2022/04/15 04:30:12;;;;;;;13.10;4.72;;;;;;;5.67;66.76;100777.50;18431422;32;20101;-67
2022/04/15 04:40:16;;;;;;;12.90;5.50;;;;;;;6.23;64.59;100787.44;18431040;32;20100;-67
2022/04/15 04:50:20;;;;;;;10.95;5.03;;;;;;;6.82;62.75;100784.31;18430075;32;20103;-66
2022/04/15 05:00:24;;;;;;;13.23;5.10;;;;;;;7.18;64.00;100796.22;18430983;32;20101;-66
2022/04/15 05:10:28;;;;;;;12.30;5.72;;;;;;;7.38;62.17;100808.69;18430089;32;20476;-67
2022/04/15 05:20:32;;;;;;;14.00;6.28;;;;;;;8.14;61.88;100812.50;18435143;32;20378;-67
2022/04/15 05:30:37;;;;;;;11.75;5.70;;;;;;;8.53;61.79;100813.03;18436585;32;20108;-67
2022/04/15 05:40:40;;;;;;;11.10;5.70;;;;;;;9.40;59.91;100801.84;18437618;32;20145;-66
2022/04/15 05:50:45;;;;;;;20.35;11.77;;;;;;;10.59;57.82;100802.69;18437126;32;20175;-67
2022/04/15 06:00:48;;;;;;;12.43;4.78;;;;;;;11.70;53.93;100802.00;18435922;32;20113;-67
2022/04/15 06:10:52;;;;;;;11.98;4.75;;;;;;;12.72;50.04;100789.56;18421492;32;20150;-67
2022/04/15 06:20:55;;;;;;;10.73;4.68;;;;;;;13.08;50.00;100802.47;18435258;32;20104;-66
2022/04/15 06:31:00;;;;;;;9.07;4.57;;;;;;;13.80;49.62;100797.56;18433747;32;20113;-67
2022/04/15 06:41:03;;;;;;;11.63;4.97;;;;;;;15.95;44.01;100796.47;18434737;32;20144;-67
2022/04/15 06:51:08;;;;;;;10.82;4.80;;;;;;;18.54;37.30;100775.50;18434332;32;20347;-67
2022/04/15 07:01:11;;;;;;;9.93;4.65;;;;;;;19.70;29.84;100770.09;18434163;32;20416;-67
2022/04/15 07:11:16;;;;;;;8.80;4.60;;;;;;;19.94;32.96;100772.84;18433812;32;20158;-67
2022/04/15 07:21:21;;;;;;;9.07;4.10;;;;;;;21.87;27.81;100768.87;18432136;32;20128;-67
2022/04/15 07:31:26;;;;;;;10.95;4.62;;;;;;;19.04;33.72;100783.72;18420339;32;20187;-67
2022/04/15 07:41:29;;;;;;;10.23;4.53;;;;;;;19.16;32.61;100788.63;18419762;32;20457;-67
2022/04/15 07:51:35;;;;;;;12.40;3.83;;;;;;;17.71;29.83;100805.00;18416223;32;72287;-67
2022/04/15 08:01:39;;;;;;;8.20;3.15;;;;;;;19.15;31.57;100799.25;18418428;32;20115;-66
2022/04/15 08:11:44;;;;;;;13.57;5.47;;;;;;;18.43;33.11;100807.50;18432783;32;20489;-67
2022/04/15 08:21:47;;;;;;;11.65;4.45;;;;;;;18.31;30.78;100813.16;18416947;32;20093;-66
2022/04/15 08:31:51;;;;;;;11.45;5.10;;;;;;;18.24;29.15;100816.87;18416673;32;20108;-67
2022/04/15 08:41:55;;;;;;;7.35;3.45;;;;;;;18.42;31.38;100812.84;18416294;32;20120;-67
2022/04/15 08:51:59;;;;;;;5.72;3.03;;;;;;;18.55;30.69;100813.34;18414623;32;20101;-67
2022/04/15 09:02:03;;;;;;;8.15;3.80;;;;;;;18.30;30.05;100816.69;18428654;32;20480;-67
2022/04/15 09:12:15;;;;;;;7.15;2.97;;;;;;;19.34;30.66;100812.75;18430074;32;20214;-67
2022/04/15 09:22:19;;;;;;;8.13;2.83;;;;;;;19.58;28.21;100815.53;18428783;32;20448;-67
2022/04/15 09:32:24;;;;;;;6.65;2.87;;;;;;;19.95;27.81;100809.00;18428081;32;20101;-67
2022/04/15 09:42:28;;;;;;;6.53;2.70;;;;;;;19.33;30.39;100801.31;18410146;32;20437;-67
2022/04/15 09:52:33;;;;;;;7.15;3.15;;;;;;;19.99;30.58;100813.25;18423053;32;20105;-67
2022/04/15 10:02:38;;;;;;;5.80;2.65;;;;;;;20.41;27.63;100795.88;18429662;32;20432;-67
2022/04/15 10:12:43;;;;;;;6.45;2.92;;;;;;;20.71;25.67;100744.38;18435841;32;20167;-67
2022/04/15 10:22:47;;;;;;;6.65;2.33;;;;;;;20.89;26.15;100764.91;18433770;32;20107;-67
2022/04/15 10:32:53;;;;;;;4.95;2.03;;;;;;;21.52;24.17;100773.88;18434878;32;20107;-67
2022/04/15 10:43:04;;;;;;;4.70;2.17;;;;;;;21.05;24.48;100748.34;18420314;32;20146;-67
2022/04/15 10:53:34;;;;;;;6.97;2.65;;;;;;;20.61;25.25;100758.00;18435308;32;20176;-67
2022/04/15 11:03:37;;;;;;;6.80;2.30;;;;;;;20.74;26.31;100755.75;18434182;32;20103;-67
2022/04/15 11:14:04;;;;;;;5.03;2.30;;;;;;;20.76;25.19;100755.66;18365299;32;20488;-67
2022/04/15 11:24:09;;;;;;;6.05;2.28;;;;;;;20.38;24.53;100754.41;18370786;32;20093;-67
2022/04/15 11:34:15;;;;;;;5.85;2.05;;;;;;;20.85;26.61;100754.47;18354639;32;20102;-67
2022/04/15 11:44:20;;;;;;;7.03;2.30;;;;;;;20.86;24.00;100751.75;18370129;32;20080;-67
2022/04/15 11:54:30;;;;;;;6.12;2.00;;;;;;;21.79;23.88;100749.75;18404234;32;20097;-67
2022/04/15 12:04:33;;;;;;;4.97;1.90;;;;;;;21.98;24.91;100743.62;18432312;32;20097;-67
2022/04/15 12:14:38;;;;;;;5.87;1.80;;;;;;;20.85;30.54;100744.72;18430766;32;20445;-67
2022/04/15 12:24:42;;;;;;;4.10;1.83;;;;;;;20.47;34.72;100762.94;18429326;32;20108;-68
2022/04/15 12:34:47;;;;;;;4.80;2.30;;;;;;;19.93;37.21;100752.53;18431147;32;20113;-67
2022/04/15 12:44:53;;;;;;;6.28;2.67;;;;;;;19.66;35.05;100744.63;18430564;32;20112;-67
2022/04/15 12:54:59;;;;;;;7.37;2.40;;;;;;;19.44;35.39;100750.66;18430425;32;20165;-67
2022/04/15 13:05:03;;;;;;;7.47;2.33;;;;;;;19.45;36.86;100746.22;18430038;32;20159;-67
2022/04/15 13:15:09;;;;;;;4.25;2.15;;;;;;;19.94;37.05;100746.34;18428797;32;20155;-67
2022/04/15 13:25:12;;;;;;;4.40;2.17;;;;;;;20.40;35.91;100745.56;18414718;32;20101;-67
2022/04/15 13:35:17;;;;;;;7.00;2.70;;;;;;;20.47;35.49;100731.13;18428838;32;20101;-67
2022/04/15 13:45:20;;;;;;;6.20;2.42;;;;;;;20.42;35.35;100719.84;18422745;32;20504;-67
2022/04/15 14:05:46;;;;;;;6.93;2.75;;;;;;;20.44;37.04;100731.25;18435730;32;20112;-67
2022/04/15 14:15:50;;;;;;;7.82;3.28;;;;;;;20.29;38.79;100730.91;18420685;32;20113;-67
2022/04/15 14:25:53;;;;;;;8.40;4.18;;;;;;;20.49;38.46;100727.50;18435451;32;20449;-67
2022/04/15 14:35:58;;;;;;;8.02;3.28;;;;;;;20.27;39.13;100719.50;18434038;32;20089;-67
2022/04/15 14:46:01;;;;;;;8.13;3.33;;;;;;;20.49;39.52;100713.41;18430333;32;20390;-67
2022/04/15 14:56:06;;;;;;;7.93;3.47;;;;;;;20.46;39.97;100695.81;18417992;32;20097;-67
2022/04/15 15:06:10;;;;;;;7.28;3.22;;;;;;;20.83;39.91;100690.84;18434369;32;20440;-67
2022/04/15 15:16:14;;;;;;;7.75;2.72;;;;;;;20.86;39.40;100690.72;18434060;32;20116;-67
2022/04/15 15:36:42;;;;;;;5.90;2.70;;;;;;;20.82;40.14;100681.19;18278604;32;20110;-67
2022/04/15 15:46:45;;;;;;;6.37;2.92;;;;;;;21.01;40.40;100667.16;18294271;32;20603;-67
2022/04/15 15:56:50;;;;;;;6.60;3.08;;;;;;;20.56;41.40;100660.97;18282196;32;20121;-67
2022/04/15 16:06:53;;;;;;;9.77;5.82;;;;;;;20.71;40.69;100643.59;18314371;32;20097;-67
2022/04/15 16:16:58;;;;;;;5.62;2.30;;;;;;;20.95;40.64;100622.28;18432231;32;20093;-67
2022/04/15 16:27:01;;;;;;;6.60;3.05;;;;;;;20.84;40.21;100623.59;18431592;32;20381;-67
2022/04/15 16:37:06;;;;;;;7.22;2.95;;;;;;;20.87;40.68;100618.19;18430861;32;20109;-67
2022/04/15 16:47:09;;;;;;;6.32;2.67;;;;;;;20.52;40.99;100612.50;18430097;32;20179;-67
2022/04/15 17:07:34;;;;;;;6.30;3.12;;;;;;;20.43;41.00;100602.28;18411512;32;20149;-67
2022/04/15 17:17:40;;;;;;;11.88;5.85;;;;;;;20.06;41.10;100602.81;18436447;32;20097;-67
2022/04/15 17:27:43;;;;;;;14.10;7.30;;;;;;;19.75;41.43;100603.94;18436791;32;20142;-67
2022/04/15 17:37:48;;;;;;;17.35;7.05;;;;;;;19.31;42.21;100604.66;18437762;32;20101;-67
2022/04/15 17:47:51;;;;;;;5.90;2.65;;;;;;;19.10;42.77;100622.97;18436285;32;20105;-67
2022/04/15 17:57:56;;;;;;;6.87;3.03;;;;;;;18.97;42.91;100640.16;18422693;32;20097;-67
2022/04/15 18:08:00;;;;;;;5.87;2.60;;;;;;;18.34;44.21;100649.22;18435780;32;20093;-67
2022/04/15 18:18:06;;;;;;;6.35;3.03;;;;;;;18.13;44.76;100658.66;18420849;32;20357;-67
2022/04/15 18:28:09;;;;;;;5.70;3.08;;;;;;;17.69;46.26;100672.19;18420810;32;20362;-67
2022/04/15 18:38:13;;;;;;;12.07;4.10;;;;;;;17.42;47.22;100678.19;18421359;32;20365;-66
2022/04/15 18:58:38;;;;;;;10.70;4.55;;;;;;;16.14;50.97;100685.53;18434463;32;20094;-66
2022/04/15 19:08:43;;;;;;;8.02;3.22;;;;;;;15.79;51.50;100694.94;18433977;32;20100;-66
2022/04/15 19:18:47;;;;;;;14.65;5.32;;;;;;;15.77;51.30;100697.59;18419050;32;20154;-66
2022/04/15 19:28:51;;;;;;;51.75;27.98;;;;;;;15.71;50.70;100694.22;18419446;32;20115;-66
2022/04/15 19:38:55;;;;;;;21.05;12.65;;;;;;;15.30;52.50;100705.47;18417943;32;20096;-66
2022/04/15 19:48:58;;;;;;;10.73;5.45;;;;;;;15.38;52.37;100706.22;18432952;32;20127;-66
2022/04/15 20:09:24;;;;;;;9.25;4.03;;;;;;;15.50;51.71;100720.88;18432362;32;20085;-66
2022/04/15 20:19:28;;;;;;;8.38;3.50;;;;;;;15.54;51.54;100706.81;18417772;32;20097;-66
2022/04/15 20:29:31;;;;;;;8.75;3.47;;;;;;;15.60;51.19;100711.09;18416798;32;20119;-66
2022/04/15 20:39:36;;;;;;;7.75;3.85;;;;;;;15.44;51.24;100710.50;18416938;32;20088;-66
2022/04/15 20:49:54;;;;;;;14.05;5.75;;;;;;;15.24;51.96;100711.72;18429782;32;20441;-66
2022/04/15 20:59:59;;;;;;;11.52;4.60;;;;;;;14.59;53.22;100720.53;18415415;32;20115;-66
2022/04/15 21:10:03;;;;;;;12.23;5.18;;;;;;;14.27;53.76;100734.94;18413363;32;20390;-66
2022/04/15 21:20:09;;;;;;;14.45;5.60;;;;;;;13.81;55.78;100734.59;18429093;32;20102;-66
2022/04/15 21:30:13;;;;;;;13.07;6.12;;;;;;;13.10;58.42;100743.91;18414411;32;20097;-66
2022/04/15 21:40:20;;;;;;;10.88;4.85;;;;;;;13.16;57.27;100733.38;18427592;32;20107;-66
2022/04/15 21:52:30;;;;;;;6.70;2.80;;;;;;;12.86;59.61;100737.94;18412871;32;20101;-66
2022/04/15 22:00:49;;;;;;;7.22;3.05;;;;;;;14.09;55.51;100743.91;18418060;32;20100;-66
2022/04/15 22:10:53;;;;;;;5.20;1.80;;;;;;;14.65;54.11;100754.59;18435768;32;20097;-66
2022/04/15 22:20:57;;;;;;;3.37;1.75;;;;;;;14.93;51.91;100746.34;18435956;32;20115;-66
2022/04/15 22:31:01;;;;;;;3.47;1.70;;;;;;;15.23;50.63;100743.28;18421523;32;20125;-66
2022/04/15 22:41:06;;;;;;;3.65;1.73;;;;;;;15.19;50.55;100757.38;18421768;32;20432;-66
2022/04/15 22:51:10;;;;;;;4.10;1.62;;;;;;;15.10;50.91;100746.13;18434509;32;20497;-66
2022/04/15 23:01:17;;;;;;;2.55;1.33;;;;;;;14.97;51.76;100763.84;18434541;32;20101;-66
2022/04/15 23:11:20;;;;;;;2.05;1.00;;;;;;;14.93;51.54;100748.97;18419328;32;20097;-66
2022/04/15 23:21:25;;;;;;;2.90;1.50;;;;;;;15.14;50.59;100759.19;18419145;32;20097;-66
2022/04/15 23:31:29;;;;;;;2.80;1.20;;;;;;;15.06;51.31;100769.84;18433646;32;20145;-66
2022/04/15 23:41:34;;;;;;;4.40;1.77;;;;;;;15.04;51.90;100771.63;18433143;32;20119;-66
2022/04/15 23:51:37;;;;;;;2.65;1.40;;;;;;;14.66;53.20;100758.97;18432787;32;20093;-66
